Weather History for Fosston, MN

Change the Weather History Date:

Wednesday, May 22, 2013

  Actual Average Record
Temperature  
Mean Temperature 56 °F -  
Max Temperature 69 °F 71 °F 94 °F (1964)
Min Temperature 44 °F 46 °F 27 °F (1963)
Degree Days  
Heating Degree Days 8    
Growing Degree Days 6 (Base 50)    
Moisture  
Dew Point 44 °F    
Average Humidity 68    
Maximum Humidity 93    
Minimum Humidity 31    
Precipitation  
Precipitation 0.00 in - - ()
Sea Level Pressure  
Sea Level Pressure 29.96 in    
Wind  
Wind Speed 14 mph (NE)    
Max Wind Speed 21 mph    
Max Gust Speed 30 mph    
Visibility 10 miles    
Events      
Averages and records for this station are not official NWS values.
T = Trace of Precipitation, MM = Missing Value Source: NWS Daily Summary

Daily Weather History Graph

Daily Weather History Graph

Search for Another Location

Airport:

Trip Planner

Search our weather history database for the weather conditions in past years. The results will help you decide how hot, cold, wet, or windy it might be!

Date:

Astronomy

May. 22, 2013 Rise Set
Actual Time 5:37 AM CDT 9:02 PM CDT
Civil Twilight 4:59 AM CDT 9:40 PM CDT
Nautical Twilight 4:09 AM CDT 10:31 PM CDT
Astronomical Twilight 3:04 AM CDT 11:37 PM CDT
Moon 6:16 PM CDT (5/22) 3:54 AM CDT (5/22)
Length of Visible Light 16h 41m
Length of Day
15h 25m
Waxing Gibbous, 91% of the Moon is Illuminated
May 22
Waxing Gibbous
May 24
Full
May 31
Last Quarter
Jun 8
New
Jun 16
First Quarter

Hourly Weather History & Observations

Time (CDT) Temp. Windchill Dew Point Humidity Pressure Visibility Wind Dir Wind Speed Gust Speed Precip Events Conditions
12:15 AM 44.6 °F 37.4 °F 42.8 °F 93% 29.88 in 10.0 mi ENE 16.1 mph 23.0 mph N/A   Overcast
12:35 AM 44.6 °F 38.8 °F 42.8 °F 93% 29.88 in 10.0 mi ENE 11.5 mph 20.7 mph N/A   Overcast
12:55 AM 44.6 °F 38.1 °F 42.8 °F 93% 29.89 in 10.0 mi ENE 13.8 mph 21.9 mph N/A   Overcast
1:15 AM 44.6 °F 37.4 °F 42.8 °F 93% 29.89 in 10.0 mi ENE 16.1 mph 20.7 mph N/A   Overcast
1:35 AM 44.6 °F 38.1 °F 42.8 °F 93% 29.88 in 10.0 mi ENE 13.8 mph 21.9 mph N/A   Overcast
1:55 AM 46.4 °F 41.5 °F 42.8 °F 87% 29.88 in 10.0 mi NE 10.4 mph 19.6 mph N/A   Overcast
2:15 AM 46.4 °F 40.4 °F 44.6 °F 93% 29.87 in 10.0 mi NNE 13.8 mph 18.4 mph N/A   Overcast
2:35 AM 44.6 °F 38.1 °F 42.8 °F 93% 29.87 in 10.0 mi NNE 13.8 mph 19.6 mph N/A   Overcast
2:55 AM 44.6 °F 37.8 °F 42.8 °F 93% 29.87 in 10.0 mi NNE 15.0 mph 21.9 mph N/A   Overcast
3:15 AM 44.6 °F 38.4 °F 42.8 °F 93% 29.87 in 10.0 mi NNE 12.7 mph 18.4 mph N/A   Overcast
3:35 AM 44.6 °F 39.2 °F 42.8 °F 93% 29.86 in 10.0 mi NE 10.4 mph 16.1 mph N/A   Overcast
3:55 AM 44.6 °F 38.4 °F 42.8 °F 93% 29.86 in 10.0 mi NE 12.7 mph 19.6 mph N/A   Overcast
4:15 AM 44.6 °F 39.2 °F 42.8 °F 93% 29.87 in 10.0 mi NE 10.4 mph 17.3 mph N/A   Overcast
4:35 AM 46.4 °F 42.4 °F 42.8 °F 87% 29.87 in 10.0 mi NE 8.1 mph 18.4 mph N/A   Overcast
4:55 AM 46.4 °F 41.9 °F 42.8 °F 87% 29.88 in 10.0 mi NE 9.2 mph 16.1 mph N/A   Overcast
5:15 AM 46.4 °F 41.9 °F 42.8 °F 87% 29.88 in 10.0 mi NE 9.2 mph - N/A   Overcast
5:35 AM 46.4 °F 41.9 °F 42.8 °F 87% 29.89 in 10.0 mi NNE 9.2 mph - N/A   Overcast
5:55 AM 44.6 °F 38.8 °F 42.8 °F 93% 29.90 in 10.0 mi NE 11.5 mph 17.3 mph N/A   Overcast
6:15 AM 44.6 °F 38.8 °F 42.8 °F 93% 29.90 in 10.0 mi ENE 11.5 mph 19.6 mph N/A   Overcast
6:35 AM 44.6 °F 40.2 °F 42.8 °F 93% 29.90 in 10.0 mi NE 8.1 mph - N/A   Overcast
6:55 AM 46.4 °F 41.1 °F 44.6 °F 93% 29.91 in 10.0 mi NNE 11.5 mph 18.4 mph N/A   Mostly Cloudy
7:15 AM 46.4 °F 40.7 °F 44.6 °F 93% 29.91 in 10.0 mi NNE 12.7 mph 18.4 mph N/A   Scattered Clouds
7:35 AM 48.2 °F - 44.6 °F 87% 29.91 in 10.0 mi NE 10.4 mph - N/A   Clear
7:55 AM 48.2 °F - 44.6 °F 87% 29.91 in 10.0 mi NNE 13.8 mph 19.6 mph N/A   Clear
8:15 AM 48.2 °F - 42.8 °F 82% 29.92 in 10.0 mi NE 15.0 mph 24.2 mph N/A   Clear
8:35 AM 48.2 °F - 42.8 °F 82% 29.92 in 10.0 mi NE 13.8 mph 21.9 mph N/A   Clear
8:55 AM 48.2 °F - 42.8 °F 82% 29.93 in 10.0 mi NE 15.0 mph 23.0 mph N/A   Clear
9:15 AM 50.0 °F - 42.8 °F 76% 29.93 in 10.0 mi NE 15.0 mph 21.9 mph N/A   Clear
9:35 AM 51.8 °F - 44.6 °F 76% 29.93 in 10.0 mi NE 17.3 mph 24.2 mph N/A   Clear
9:55 AM 51.8 °F - 44.6 °F 76% 29.94 in 10.0 mi NE 15.0 mph 25.3 mph N/A   Clear
10:15 AM 51.8 °F - 44.6 °F 76% 29.93 in 10.0 mi NE 16.1 mph 25.3 mph N/A   Clear
10:35 AM 53.6 °F - 46.4 °F 77% 29.93 in 10.0 mi NE 19.6 mph 25.3 mph N/A   Clear
10:55 AM 53.6 °F - 46.4 °F 77% 29.94 in 10.0 mi NE 17.3 mph 24.2 mph N/A   Clear
11:15 AM 55.4 °F - 48.2 °F 77% 29.94 in 10.0 mi NE 15.0 mph 24.2 mph N/A   Clear
11:35 AM 57.2 °F - 48.2 °F 72% 29.94 in 10.0 mi NE 16.1 mph 25.3 mph N/A   Clear
11:55 AM 57.2 °F - 48.2 °F 72% 29.95 in 10.0 mi NE 19.6 mph 25.3 mph N/A   Clear
12:15 PM 59.0 °F - 48.2 °F 67% 29.95 in 10.0 mi NE 13.8 mph 26.5 mph N/A   Clear
12:35 PM 59.0 °F - 48.2 °F 67% 29.95 in 10.0 mi NE 12.7 mph 25.3 mph N/A   Clear
12:55 PM 60.8 °F - 48.2 °F 63% 29.96 in 10.0 mi NE 16.1 mph 23.0 mph N/A   Clear
1:15 PM 62.6 °F - 46.4 °F 55% 29.96 in 10.0 mi NE 16.1 mph 26.5 mph N/A   Clear
1:35 PM 62.6 °F - 46.4 °F 55% 29.96 in 10.0 mi NE 20.7 mph 26.5 mph N/A   Clear
1:55 PM 64.4 °F - 46.4 °F 52% 29.96 in 10.0 mi NE 16.1 mph 23.0 mph N/A   Clear
2:15 PM 64.4 °F - 44.6 °F 49% 29.97 in 10.0 mi NE 15.0 mph 23.0 mph N/A   Clear
2:35 PM 64.4 °F - 42.8 °F 45% 29.97 in 10.0 mi NE 17.3 mph 24.2 mph N/A   Clear
2:55 PM 66.2 °F - 42.8 °F 43% 29.97 in 10.0 mi NE 18.4 mph 29.9 mph N/A   Clear
3:15 PM 66.2 °F - 42.8 °F 43% 29.97 in 10.0 mi NE 11.5 mph 24.2 mph N/A   Clear
3:35 PM 66.2 °F - 41.0 °F 40% 29.97 in 10.0 mi NE 16.1 mph 26.5 mph N/A   Clear
3:55 PM 66.2 °F - 37.4 °F 35% 29.97 in 10.0 mi NE 16.1 mph 25.3 mph N/A   Clear
4:15 PM 66.2 °F - 37.4 °F 35% 29.97 in 10.0 mi NE 17.3 mph 29.9 mph N/A   Clear
4:35 PM 68.0 °F - 37.4 °F 33% 29.97 in 10.0 mi NE 17.3 mph 26.5 mph N/A   Clear
4:55 PM 69.8 °F - 37.4 °F 31% 29.97 in 10.0 mi ENE 17.3 mph 27.6 mph N/A   Clear
5:15 PM 69.8 °F - 39.2 °F 33% 29.97 in 10.0 mi NE 17.3 mph 23.0 mph N/A   Clear
5:35 PM 69.8 °F - 39.2 °F 33% 29.97 in 10.0 mi NE 16.1 mph 21.9 mph N/A   Clear
5:55 PM 69.8 °F - 39.2 °F 33% 29.98 in 10.0 mi NE 16.1 mph 23.0 mph N/A   Clear
6:15 PM 69.8 °F - 41.0 °F 35% 29.98 in 10.0 mi NE 11.5 mph 21.9 mph N/A   Clear
6:35 PM 68.0 °F - 41.0 °F 37% 29.99 in 10.0 mi NE 11.5 mph 20.7 mph N/A   Scattered Clouds
6:55 PM 66.2 °F - 42.8 °F 43% 30.00 in 10.0 mi NE 11.5 mph 16.1 mph N/A   Mostly Cloudy
7:15 PM 66.2 °F - 44.6 °F 46% 30.00 in 10.0 mi NE 10.4 mph - N/A   Mostly Cloudy
7:35 PM 69.8 °F - 46.4 °F 43% 30.01 in 10.0 mi NNE 13.8 mph 21.9 mph N/A   Mostly Cloudy
7:55 PM 66.2 °F - 44.6 °F 46% 30.02 in 10.0 mi North 17.3 mph 21.9 mph N/A   Scattered Clouds
8:15 PM 64.4 °F - 44.6 °F 49% 30.03 in 10.0 mi North 17.3 mph - N/A   Clear
8:35 PM 62.6 °F - 46.4 °F 55% 30.04 in 10.0 mi North 15.0 mph - N/A   Clear
8:55 PM 60.8 °F - 46.4 °F 59% 30.05 in 10.0 mi NNE 11.5 mph - N/A   Clear
9:15 PM 57.2 °F - 46.4 °F 67% 30.05 in 10.0 mi NNE 10.4 mph - N/A   Clear
9:35 PM 57.2 °F - 46.4 °F 67% 30.06 in 10.0 mi NNE 10.4 mph - N/A   Clear
9:55 PM 57.2 °F - 44.6 °F 63% 30.08 in 10.0 mi NE 10.4 mph - N/A   Clear
10:15 PM 55.4 °F - 44.6 °F 67% 30.09 in 10.0 mi NNE 9.2 mph - N/A   Clear
10:35 PM 55.4 °F - 44.6 °F 67% 30.10 in 10.0 mi NE 10.4 mph 16.1 mph N/A   Clear
10:55 PM 55.4 °F - 42.8 °F 63% 30.10 in 10.0 mi NE 10.4 mph 18.4 mph N/A   Clear
11:15 PM 53.6 °F - 41.0 °F 62% 30.11 in 10.0 mi NE 10.4 mph - N/A   Clear
11:35 PM 53.6 °F - 41.0 °F 62% 30.12 in 10.0 mi NE 10.4 mph - N/A   Clear
11:55 PM 53.6 °F - 39.2 °F 58% 30.13 in 10.0 mi NE 11.5 mph 19.6 mph N/A   Clear